This is the latest recevied weather packets stored in our database for station/object DL2BWO-13. If no packets are shown the sender has not sent any weather packets the latest 10 day(s).
| Time | Temp. | Humidity | Pressure | Rain* | Wind** | Luminosity | Snow |
|---|---|---|---|---|---|---|---|
| 1777628254 | 21.67° C | 50% | 750 hPa | 0 mm | - | - | - |
| 1777627318 | 21.67° C | 51% | 750.3 hPa | 0 mm | - | - | - |
| 1777626382 | 20.56° C | 51% | 748.9 hPa | 0 mm | - | - | - |
| 1777624511 | 20° C | 52% | 748 hPa | 0 mm | - | - | - |
| 1777622639 | 18.89° C | 56% | 747 hPa | 0 mm | - | - | - |
| 1777621703 | 17.78° C | 57% | 745.9 hPa | 0 mm | - | - | - |
| 1777620767 | 17.22° C | 59% | 744.9 hPa | 0 mm | - | - | - |
| 1777619831 | 16.67° C | 61% | 744.2 hPa | 0 mm | - | - | - |
| 1777617023 | 13.33° C | 71% | 740.9 hPa | 0 mm | - | - | - |
| 1777616087 | 12.22° C | 72% | 739.8 hPa | 0 mm | - | - | - |
| 1777614215 | 10° C | 82% | 737 hPa | 0 mm | - | - | - |
| 1777613279 | 8.89° C | 87% | 735.6 hPa | 0 mm | - | - | - |
| 1777611407 | 6.67° C | 91% | 733.1 hPa | 0 mm | - | - | - |
| 1777610471 | 5.56° C | 91% | 732 hPa | 0 mm | - | - | - |
| 1777609535 | 5° C | 88% | 731.4 hPa | 0 mm | - | - | - |
| 1777608599 | 5° C | 87% | 731.4 hPa | 0 mm | - | - | - |
| 1777607663 | 5° C | 86% | 731.4 hPa | 0 mm | - | - | - |
| 1777604855 | 5° C | 84% | 731.3 hPa | 0 mm | - | - | - |
| 1777603920 | 5.56° C | 86% | 731.9 hPa | 0 mm | - | - | - |
| 1777602984 | 5.56° C | 82% | 732.2 hPa | 0 mm | - | - | - |
| 1777602048 | 6.11° C | 80% | 732.4 hPa | 0 mm | - | - | - |
| 1777601112 | 6.11° C | 81% | 732.5 hPa | 0 mm | - | - | - |
| 1777600176 | 6.11° C | 82% | 732.9 hPa | 0 mm | - | - | - |
| 1777599240 | 6.67° C | 81% | 733.1 hPa | 0 mm | - | - | - |
| 1777598304 | 6.67° C | 78% | 733.2 hPa | 0 mm | - | - | - |
* Rain latest hour (hover to see other rain measurements)
** Current wind speed in m/s (hover to see current wind gust speed)